Time;durP1;ratioP1;P1;durP2;ratioP2;P2;SDS_P1;SDS_P2;PMS_P1;PMS_P2;Temp;Humidity;BMP_temperature;BMP_pressure;BME280_temperature;BME280_humidity;BME280_pressure;Samples;Min_cycle;Max_cycle;Signal;HPM_P1;HPM_P2
2022/07/18 00:02:04;;;;;;;3.42;2.42;;;;;;;20.74;43.19;96649.03;10326658;28;99619;-75
2022/07/18 00:07:06;;;;;;;3.27;2.20;;;;;;;20.65;43.29;96651.00;10334529;28;97640;-74
2022/07/18 00:12:11;;;;;;;2.50;1.90;;;;;;;20.48;43.72;96657.72;10342084;28;100259;-74
2022/07/18 00:17:14;;;;;;;5.10;2.40;;;;;;;20.30;44.21;96661.72;10335015;28;98460;-74
2022/07/18 00:22:17;;;;;;;2.47;1.95;;;;;;;20.14;44.41;96657.56;10332727;28;100131;-74
2022/07/18 00:27:22;;;;;;;2.78;2.33;;;;;;;20.06;43.99;96654.28;10339658;28;97784;-74
2022/07/18 00:32:24;;;;;;;3.63;2.17;;;;;;;19.87;44.07;96659.31;10348129;28;97001;-74
2022/07/18 00:37:27;;;;;;;2.90;1.85;;;;;;;19.81;44.03;96646.78;10337104;28;97557;-74
2022/07/18 00:42:32;;;;;;;2.70;2.05;;;;;;;19.80;44.05;96650.44;10343583;28;97798;-74
2022/07/18 00:47:35;;;;;;;2.92;1.83;;;;;;;19.65;45.26;96652.41;10330700;28;97606;-74
2022/07/18 00:52:38;;;;;;;3.70;2.00;;;;;;;19.42;45.56;96659.59;10347570;28;98337;-74
2022/07/18 00:57:43;;;;;;;2.80;2.30;;;;;;;19.30;46.52;96655.00;10343962;28;98848;-74
2022/07/18 01:02:46;;;;;;;3.50;2.22;;;;;;;19.19;46.71;96656.34;10340404;28;100132;-74
2022/07/18 01:07:51;;;;;;;4.05;2.03;;;;;;;19.08;46.87;96651.59;10339706;28;99459;-74
2022/07/18 01:12:56;;;;;;;2.90;2.10;;;;;;;18.96;46.65;96646.00;10348394;28;99209;-74
2022/07/18 01:17:59;;;;;;;4.28;2.42;;;;;;;18.77;46.72;96640.28;10338852;28;98095;-74
2022/07/18 01:23:03;;;;;;;4.75;1.90;;;;;;;18.72;46.36;96637.38;10349681;28;97618;-74
2022/07/18 01:28:07;;;;;;;2.65;2.00;;;;;;;18.74;46.34;96645.97;10336336;28;96977;-74
2022/07/18 01:33:09;;;;;;;2.00;1.70;;;;;;;18.69;46.71;96649.19;10347592;28;97553;-73
2022/07/18 01:38:14;;;;;;;5.00;2.13;;;;;;;18.58;47.90;96647.03;10350392;28;100318;-74
2022/07/18 01:43:17;;;;;;;4.32;2.42;;;;;;;18.45;47.88;96655.66;10344022;28;102071;-73
2022/07/18 01:48:22;;;;;;;3.22;2.17;;;;;;;18.30;48.08;96649.59;10343082;28;97396;-74
2022/07/18 01:53:27;;;;;;;3.38;1.90;;;;;;;18.21;48.84;96661.28;10345784;28;99951;-74
2022/07/18 01:58:30;;;;;;;2.35;2.03;;;;;;;18.08;49.43;96659.28;10343479;28;99122;-73
2022/07/18 02:03:33;;;;;;;4.97;2.30;;;;;;;17.96;49.97;96666.88;10343054;28;97172;-73
2022/07/18 02:08:37;;;;;;;3.20;2.10;;;;;;;17.88;50.26;96662.50;10342159;28;98110;-73
2022/07/18 02:13:40;;;;;;;4.55;2.20;;;;;;;17.81;50.13;96663.38;10334250;28;97953;-73
2022/07/18 02:18:46;;;;;;;7.03;2.58;;;;;;;17.70;50.19;96664.66;10342758;28;96975;-76
2022/07/18 02:23:54;;;;;;;2.67;1.90;;;;;;;17.67;50.91;96665.84;10338116;28;98528;-75
2022/07/18 02:28:57;;;;;;;2.30;2.10;;;;;;;17.61;50.51;96656.00;10334314;28;97444;-75
2022/07/18 02:34:00;;;;;;;2.10;1.90;;;;;;;17.51;50.61;96660.75;10333219;28;97804;-75
2022/07/18 02:39:04;;;;;;;2.60;2.05;;;;;;;17.30;50.60;96656.97;10334641;28;97316;-75
2022/07/18 02:44:07;;;;;;;3.67;2.20;;;;;;;17.23;51.24;96663.97;10347407;28;98982;-74
2022/07/18 02:49:26;;;;;;;3.10;2.20;;;;;;;17.20;51.38;96666.97;10345186;28;101901;-75
2022/07/18 02:54:32;;;;;;;2.88;2.17;;;;;;;17.13;51.63;96664.22;10345777;28;97117;-75
2022/07/18 02:59:35;;;;;;;2.75;2.08;;;;;;;17.03;52.25;96665.47;10339997;28;98083;-74
2022/07/18 03:04:38;;;;;;;3.58;2.30;;;;;;;16.95;52.13;96661.06;10343630;28;98986;-74
2022/07/18 03:09:42;;;;;;;2.63;2.20;;;;;;;16.90;51.89;96658.97;10327049;28;97345;-74
2022/07/18 03:14:45;;;;;;;2.90;2.08;;;;;;;16.83;51.52;96671.22;10335405;28;97136;-75
2022/07/18 03:19:48;;;;;;;2.17;1.90;;;;;;;16.75;51.69;96671.28;10345650;28;97607;-74
2022/07/18 03:24:52;;;;;;;4.55;2.42;;;;;;;16.53;51.66;96663.16;10342622;28;98744;-75
2022/07/18 03:29:55;;;;;;;2.80;1.90;;;;;;;16.47;51.60;96670.94;10339308;28;99490;-74
2022/07/18 03:34:58;;;;;;;2.60;2.15;;;;;;;16.45;51.74;96673.75;10341513;28;97915;-75
2022/07/18 03:40:03;;;;;;;3.28;2.00;;;;;;;16.37;52.83;96661.44;10337346;28;97272;-74
2022/07/18 03:45:06;;;;;;;;;;;;;;;16.29;52.09;96671.19;10342511;28;96772;-74
2022/07/18 03:50:10;;;;;;;2.22;1.92;;;;;;;16.30;51.62;96667.59;10344784;28;97368;-75
2022/07/18 03:55:15;;;;;;;2.50;1.75;;;;;;;16.35;52.34;96675.78;10343550;28;100014;-74
2022/07/18 04:00:18;;;;;;;2.42;2.05;;;;;;;16.34;51.95;96674.13;10349421;28;101046;-74
2022/07/18 04:05:21;;;;;;;2.70;2.00;;;;;;;16.28;52.20;96672.22;10351295;28;97799;-74
2022/07/18 04:10:26;;;;;;;4.90;2.13;;;;;;;16.24;53.12;96675.19;10334898;28;98011;-74
2022/07/18 04:15:31;;;;;;;12.75;3.30;;;;;;;16.19;52.89;96671.41;10331015;28;98662;-74
2022/07/18 04:20:35;;;;;;;10.98;2.90;;;;;;;16.21;52.44;96674.72;10349463;28;100069;-74
2022/07/18 04:25:42;;;;;;;10.30;2.33;;;;;;;16.29;52.61;96677.28;10341493;28;97471;-74
2022/07/18 04:30:45;;;;;;;5.93;2.70;;;;;;;16.33;53.20;96677.75;10342409;28;100169;-74
2022/07/18 04:35:49;;;;;;;6.00;2.40;;;;;;;16.35;52.98;96673.16;10345764;28;97625;-76
2022/07/18 04:40:53;;;;;;;6.88;2.42;;;;;;;16.40;53.12;96679.53;10337006;28;97943;-74
2022/07/18 04:45:56;;;;;;;5.07;2.20;;;;;;;16.43;53.64;96688.91;10327134;28;100102;-74
2022/07/18 04:50:59;;;;;;;9.05;2.70;;;;;;;16.49;53.14;96698.78;10342030;28;99800;-75
2022/07/18 04:56:03;;;;;;;4.85;2.30;;;;;;;16.51;53.42;96695.97;10327278;28;97594;-74
2022/07/18 05:01:06;;;;;;;4.95;2.22;;;;;;;16.59;52.93;96695.94;10330427;28;97065;-75
2022/07/18 05:06:09;;;;;;;5.00;2.75;;;;;;;16.74;53.59;96702.06;10324796;28;98159;-75
2022/07/18 05:11:14;;;;;;;3.20;2.30;;;;;;;16.89;53.34;96704.81;10324596;28;99068;-74
2022/07/18 05:16:17;;;;;;;4.75;2.40;;;;;;;17.03;53.33;96699.78;10328266;28;98198;-74
2022/07/18 05:21:20;;;;;;;3.88;2.45;;;;;;;17.18;53.26;96696.19;10334745;28;98253;-74
2022/07/18 05:26:24;;;;;;;4.93;2.55;;;;;;;17.41;52.14;96699.81;10346104;28;99132;-74
2022/07/18 05:31:27;;;;;;;4.97;2.20;;;;;;;17.61;52.16;96703.53;10333075;28;98016;-75
2022/07/18 05:36:30;;;;;;;5.93;2.70;;;;;;;17.82;52.35;96704.66;10330844;28;99958;-74
2022/07/18 05:41:34;;;;;;;5.90;2.80;;;;;;;18.09;52.41;96711.16;10320289;28;98671;-74
2022/07/18 05:46:37;;;;;;;3.70;2.33;;;;;;;18.32;51.91;96700.47;10319521;28;98284;-75
2022/07/18 05:51:40;;;;;;;3.33;2.40;;;;;;;18.49;51.30;96701.88;10329796;28;97206;-74
2022/07/18 05:56:45;;;;;;;5.72;2.22;;;;;;;18.63;50.63;96709.97;10332917;28;97856;-75
2022/07/18 06:01:48;;;;;;;4.95;2.67;;;;;;;18.82;50.03;96712.00;10323194;28;96928;-74
2022/07/18 06:06:51;;;;;;;5.57;2.15;;;;;;;19.09;48.85;96706.19;10318580;28;99196;-75
2022/07/18 06:11:55;;;;;;;5.50;2.30;;;;;;;19.18;47.54;96695.28;10336913;28;98840;-75
2022/07/18 06:16:58;;;;;;;3.70;2.58;;;;;;;19.28;49.09;96704.72;10333594;28;97537;-75
2022/07/18 06:22:02;;;;;;;3.67;2.40;;;;;;;19.60;49.06;96695.41;10331298;28;98472;-75
2022/07/18 06:27:06;;;;;;;3.77;2.67;;;;;;;19.87;48.34;96687.63;10328937;28;98235;-75
2022/07/18 06:32:09;;;;;;;3.33;2.67;;;;;;;19.98;48.27;96687.09;10333151;28;99523;-75
2022/07/18 06:37:12;;;;;;;4.95;2.65;;;;;;;20.09;47.77;96693.66;10330924;28;99813;-72
2022/07/18 06:42:17;;;;;;;3.70;2.70;;;;;;;20.32;48.22;96696.84;10335352;28;99829;-72
2022/07/18 06:47:19;;;;;;;;;;;;;;;20.57;47.91;96698.97;10336195;28;97764;-71
2022/07/18 06:52:22;;;;;;;3.22;2.40;;;;;;;20.78;47.69;96694.56;10339750;28;99271;-72
2022/07/18 06:57:27;;;;;;;3.40;2.42;;;;;;;20.88;47.47;96689.69;10339789;28;96836;-72
2022/07/18 07:02:29;;;;;;;3.15;2.30;;;;;;;20.97;47.76;96688.47;10339659;28;97320;-72
2022/07/18 07:07:32;;;;;;;4.32;2.65;;;;;;;21.09;47.40;96692.16;10340869;28;97014;-71
2022/07/18 07:12:41;;;;;;;3.53;2.28;;;;;;;21.32;47.26;96685.63;10340101;28;97274;-71
2022/07/18 07:17:44;;;;;;;2.92;2.42;;;;;;;21.54;46.87;96698.72;10338314;28;96855;-71
2022/07/18 07:22:49;;;;;;;4.68;2.55;;;;;;;21.73;46.08;96687.25;10338965;28;96807;-72
2022/07/18 07:27:54;;;;;;;3.42;2.22;;;;;;;21.95;45.83;96685.16;10340114;28;96758;-71
2022/07/18 07:32:57;;;;;;;3.58;2.35;;;;;;;22.08;45.56;96686.97;10339452;28;97003;-72
2022/07/18 07:38:00;;;;;;;3.88;2.30;;;;;;;22.21;44.70;96681.63;10339422;28;96848;-71
2022/07/18 07:43:09;;;;;;;3.33;2.10;;;;;;;22.38;43.65;96679.28;10339513;28;96907;-71
2022/07/18 07:48:12;;;;;;;7.53;2.75;;;;;;;22.51;43.21;96673.13;10339206;28;96925;-72
2022/07/18 07:53:15;;;;;;;5.13;2.58;;;;;;;22.74;42.69;96661.91;10339185;28;97204;-72
2022/07/18 07:58:19;;;;;;;3.75;1.95;;;;;;;22.96;42.47;96667.72;10339011;28;96891;-72
2022/07/18 08:03:22;;;;;;;3.00;2.13;;;;;;;23.06;42.58;96663.75;10338970;28;97003;-71
2022/07/18 08:08:26;;;;;;;3.88;2.13;;;;;;;23.22;42.96;96663.22;10338777;28;96815;-72
2022/07/18 08:13:30;;;;;;;4.47;2.60;;;;;;;23.33;42.41;96653.75;10337996;28;97253;-71
2022/07/18 08:18:33;;;;;;;3.03;2.10;;;;;;;23.46;42.35;96652.78;10338556;28;96855;-71
2022/07/18 08:23:37;;;;;;;5.03;2.50;;;;;;;23.67;41.96;96655.06;10338061;28;96884;-72
2022/07/18 08:28:41;;;;;;;;;;;;;;;23.82;41.87;96654.69;10338878;28;96985;-71
2022/07/18 08:33:44;;;;;;;5.77;2.40;;;;;;;23.97;41.67;96651.66;10337696;28;96716;-71
2022/07/18 08:38:47;;;;;;;3.30;2.10;;;;;;;24.15;41.05;96650.88;10338779;28;96831;-72
2022/07/18 08:43:51;;;;;;;4.75;2.10;;;;;;;24.26;40.59;96649.28;10328394;28;97734;-72
2022/07/18 08:48:55;;;;;;;5.45;2.00;;;;;;;24.26;40.43;96651.97;10336983;28;97193;-72
2022/07/18 08:53:59;;;;;;;3.00;1.95;;;;;;;24.34;40.33;96649.00;10337167;28;97118;-72
2022/07/18 08:59:04;;;;;;;;;;;;;;;24.42;40.44;96635.34;10335245;28;96855;-72
2022/07/18 09:04:16;;;;;;;3.22;1.80;;;;;;;24.64;40.14;96638.31;10334506;28;97066;-72
2022/07/18 09:09:19;;;;;;;2.53;2.20;;;;;;;24.79;39.41;96635.22;10336960;28;96978;-72
2022/07/18 09:14:35;;;;;;;2.30;1.83;;;;;;;24.91;39.01;96637.16;10336268;28;96903;-72
2022/07/18 09:19:40;;;;;;;6.20;2.67;;;;;;;25.01;38.62;96637.41;10335987;28;97204;-72
2022/07/18 09:24:57;;;;;;;5.78;2.42;;;;;;;25.15;38.40;96621.97;10336746;28;96812;-72
2022/07/18 09:30:16;;;;;;;3.05;2.22;;;;;;;25.29;38.19;96631.38;10336251;28;96804;-72
2022/07/18 09:35:22;;;;;;;2.85;2.50;;;;;;;25.52;38.12;96627.91;10336292;28;96855;-72
2022/07/18 09:40:29;;;;;;;4.78;2.30;;;;;;;25.71;37.48;96625.94;10336413;28;96752;-72
2022/07/18 09:45:35;;;;;;;4.90;2.30;;;;;;;25.83;37.36;96622.44;10336275;28;97015;-72
2022/07/18 09:50:40;;;;;;;3.20;1.92;;;;;;;25.93;37.04;96623.47;10335753;28;97290;-72
2022/07/18 09:55:47;;;;;;;4.43;2.30;;;;;;;26.05;36.76;96615.41;10335396;28;96843;-72
2022/07/18 10:00:52;;;;;;;4.53;2.25;;;;;;;26.15;36.64;96609.44;10335395;28;98059;-71
2022/07/18 10:05:57;;;;;;;7.50;2.58;;;;;;;26.31;36.40;96607.88;10335616;28;96872;-71
2022/07/18 10:11:03;;;;;;;3.08;2.45;;;;;;;26.44;36.41;96602.25;10336118;28;96884;-72
2022/07/18 10:16:07;;;;;;;2.40;2.20;;;;;;;26.61;35.99;96596.94;10342126;28;96770;-72
2022/07/18 10:21:12;;;;;;;4.68;2.00;;;;;;;26.68;35.89;96586.88;10342140;28;96965;-72
2022/07/18 10:26:17;;;;;;;3.22;2.30;;;;;;;26.82;35.62;96582.00;10342285;28;96811;-72
2022/07/18 10:31:23;;;;;;;4.22;2.30;;;;;;;26.96;35.56;96585.22;10341877;28;96814;-72
2022/07/18 10:36:26;;;;;;;3.53;2.33;;;;;;;27.15;35.41;96577.75;10341199;28;96804;-72
2022/07/18 10:41:29;;;;;;;3.53;2.27;;;;;;;27.25;35.19;96569.03;10342038;28;96782;-72
2022/07/18 10:47:08;;;;;;;2.83;2.00;;;;;;;27.35;35.11;96566.47;10341487;28;96865;-72
2022/07/18 10:52:53;;;;;;;3.80;2.20;;;;;;;27.42;35.27;96564.47;10341682;28;96892;-72
2022/07/18 10:58:22;;;;;;;3.38;2.22;;;;;;;27.72;35.01;96557.06;10340973;28;97126;-72
2022/07/18 11:03:33;;;;;;;2.55;2.20;;;;;;;27.72;34.96;96552.53;10337301;28;96820;-72
2022/07/18 11:08:37;;;;;;;2.63;2.13;;;;;;;27.97;34.71;96549.31;10341210;28;96960;-72
2022/07/18 11:13:43;;;;;;;4.43;2.33;;;;;;;27.96;34.92;96541.53;10336846;28;96843;-72
2022/07/18 11:19:21;;;;;;;2.80;2.30;;;;;;;27.95;34.25;96534.53;10340317;28;96797;-72
2022/07/18 11:24:24;;;;;;;6.45;2.83;;;;;;;28.20;34.21;96536.69;10339932;28;96842;-72
2022/07/18 11:29:27;;;;;;;5.50;2.77;;;;;;;28.45;34.08;96533.47;10340107;28;96842;-72
2022/07/18 11:34:31;;;;;;;5.70;2.60;;;;;;;28.69;33.90;96528.59;10339814;28;97135;-72
2022/07/18 11:39:49;;;;;;;5.10;2.30;;;;;;;28.97;32.96;96524.78;10334664;28;97320;-72
2022/07/18 11:44:58;;;;;;;4.30;2.30;;;;;;;29.20;32.58;96520.09;10337166;28;97493;-72
2022/07/18 11:50:03;;;;;;;2.95;2.38;;;;;;;29.42;32.22;96511.88;10333404;28;98497;-72
2022/07/18 11:55:06;;;;;;;2.35;2.10;;;;;;;29.58;31.71;96502.03;10333974;28;96721;-72
2022/07/18 12:00:16;;;;;;;4.07;2.38;;;;;;;29.67;31.22;96500.44;10334376;28;97242;-72
2022/07/18 12:05:31;;;;;;;3.00;2.20;;;;;;;29.85;30.59;96491.09;10336405;28;96897;-72
2022/07/18 12:10:33;;;;;;;2.67;2.00;;;;;;;30.07;30.36;96488.16;10334756;28;98760;-72
2022/07/18 12:15:40;;;;;;;4.22;2.15;;;;;;;30.29;30.09;96479.06;10338797;28;97112;-72
2022/07/18 12:20:44;;;;;;;3.42;2.10;;;;;;;30.44;29.80;96473.69;10337759;28;97078;-72
2022/07/18 12:25:48;;;;;;;4.35;1.95;;;;;;;30.64;29.91;96472.06;10330293;28;96768;-72
2022/07/18 12:30:51;;;;;;;6.35;2.00;;;;;;;30.63;29.61;96470.44;10336990;28;97899;-73
2022/07/18 12:36:04;;;;;;;2.22;1.92;;;;;;;30.87;29.07;96451.03;10336879;28;96770;-72
2022/07/18 12:41:07;;;;;;;5.00;2.33;;;;;;;30.78;28.83;96450.78;10337914;28;96652;-72
2022/07/18 12:46:11;;;;;;;4.38;2.20;;;;;;;30.90;28.81;96447.81;10338189;28;97375;-72
2022/07/18 12:51:15;;;;;;;3.15;2.00;;;;;;;31.10;28.47;96442.34;10328505;28;97337;-72
2022/07/18 12:56:18;;;;;;;3.25;2.13;;;;;;;31.12;28.35;96448.28;10337497;28;96772;-73
2022/07/18 13:01:21;;;;;;;3.92;1.98;;;;;;;31.26;27.79;96436.91;10336862;28;96778;-72
2022/07/18 13:06:25;;;;;;;;;;;;;;;31.34;28.22;96428.25;10337615;28;96943;-72
2022/07/18 13:11:28;;;;;;;4.07;1.85;;;;;;;31.43;27.78;96421.19;10336999;28;96823;-73
2022/07/18 13:16:33;;;;;;;3.90;1.73;;;;;;;31.52;27.59;96411.47;10330970;28;97195;-72
2022/07/18 13:21:37;;;;;;;;;;;;;;;31.76;27.61;96418.88;10336885;28;96951;-73
2022/07/18 13:26:41;;;;;;;5.03;2.10;;;;;;;32.26;26.67;96410.72;10336511;28;97584;-72
2022/07/18 13:31:44;;;;;;;3.35;2.00;;;;;;;32.40;25.81;96406.28;10336140;28;97328;-73
2022/07/18 13:36:50;;;;;;;3.80;2.40;;;;;;;32.52;25.70;96398.63;10336435;28;96747;-73
2022/07/18 13:41:52;;;;;;;2.50;1.70;;;;;;;32.89;25.04;96402.59;10336515;28;97099;-72
2022/07/18 13:46:55;;;;;;;;;;;;;;;32.78;25.95;96386.75;10338084;28;97000;-73
2022/07/18 13:51:59;;;;;;;3.87;2.20;;;;;;;33.35;24.21;96376.91;10343487;28;97278;-73
2022/07/18 13:57:08;;;;;;;4.45;2.30;;;;;;;33.64;23.54;96367.91;10343536;28;97139;-72
2022/07/18 14:02:10;;;;;;;;;;;;;;;33.47;24.26;96358.34;10343385;28;96781;-73
2022/07/18 14:07:17;;;;;;;4.07;1.70;;;;;;;33.98;23.56;96361.41;10343454;28;98050;-73
2022/07/18 14:12:20;;;;;;;7.72;2.42;;;;;;;34.37;22.23;96347.50;10338404;28;97211;-73
2022/07/18 14:17:23;;;;;;;7.07;2.45;;;;;;;35.03;20.99;96346.59;10342252;28;98475;-73
2022/07/18 14:22:27;;;;;;;4.18;2.28;;;;;;;36.50;19.31;96338.06;10342433;28;96685;-73
2022/07/18 14:27:30;;;;;;;4.47;2.70;;;;;;;38.46;17.82;96333.09;10342198;28;97126;-73
2022/07/18 14:32:33;;;;;;;8.48;1.95;;;;;;;40.06;16.78;96331.56;10341604;28;97213;-73
2022/07/18 14:37:38;;;;;;;7.47;1.88;;;;;;;40.96;15.89;96326.34;10341952;28;96932;-74
2022/07/18 14:42:41;;;;;;;5.03;2.10;;;;;;;42.52;14.93;96324.19;10342316;28;96859;-74
2022/07/18 14:47:45;;;;;;;3.97;2.17;;;;;;;43.61;14.22;96329.13;10334204;28;96916;-74
2022/07/18 14:52:49;;;;;;;4.78;1.70;;;;;;;44.50;14.12;96317.50;10340970;28;96935;-74
2022/07/18 14:57:52;;;;;;;6.18;2.38;;;;;;;45.62;13.03;96318.06;10340043;28;98757;-74
2022/07/18 15:02:58;;;;;;;5.75;2.25;;;;;;;46.24;12.54;96311.25;10339980;28;97053;-74
2022/07/18 15:08:02;;;;;;;5.53;2.35;;;;;;;46.89;12.19;96300.81;10340702;28;96917;-74
2022/07/18 15:13:05;;;;;;;5.18;2.20;;;;;;;47.73;11.88;96298.94;10340571;28;97239;-74
2022/07/18 15:18:08;;;;;;;5.65;2.17;;;;;;;47.40;11.44;96297.19;10340135;28;96793;-74
2022/07/18 15:23:12;;;;;;;6.45;2.40;;;;;;;46.97;11.83;96286.66;10340319;28;97086;-74
2022/07/18 15:28:15;;;;;;;8.82;2.50;;;;;;;47.21;11.69;96273.38;10339926;28;97152;-75
2022/07/18 15:33:19;;;;;;;5.35;2.22;;;;;;;47.03;11.54;96267.75;10334705;28;98110;-74
2022/07/18 15:38:23;;;;;;;8.98;2.63;;;;;;;47.39;11.53;96262.41;10328223;28;96860;-75
2022/07/18 15:43:26;;;;;;;6.32;2.60;;;;;;;47.57;11.09;96263.31;10340437;28;96979;-75
2022/07/18 15:48:29;;;;;;;5.82;2.75;;;;;;;47.67;10.33;96255.41;10323947;28;96817;-75
2022/07/18 15:53:33;;;;;;;5.45;2.50;;;;;;;47.28;10.53;96244.97;10328590;28;96890;-75
2022/07/18 15:58:37;;;;;;;6.68;2.40;;;;;;;47.23;10.23;96233.13;10338481;28;96941;-75
2022/07/18 16:03:40;;;;;;;6.18;2.80;;;;;;;47.62;9.91;96241.97;10329049;28;97288;-75
2022/07/18 16:08:44;;;;;;;5.65;2.47;;;;;;;47.53;9.51;96236.78;10334478;28;96739;-75
2022/07/18 16:13:47;;;;;;;5.22;2.65;;;;;;;47.44;9.77;96226.06;10334418;28;96703;-75
2022/07/18 16:18:51;;;;;;;5.03;3.08;;;;;;;46.99;9.50;96233.72;10331460;28;96966;-75
2022/07/18 16:23:55;;;;;;;6.30;2.95;;;;;;;47.69;9.43;96219.84;10337500;28;98023;-75
2022/07/18 16:29:20;;;;;;;6.45;2.80;;;;;;;47.68;9.12;96216.28;10322463;28;97817;-76
2022/07/18 16:45:16;;;;;;;4.45;2.72;;;;;;;47.65;9.29;96216.28;10359005;23;98467;-64
2022/07/18 16:50:20;;;;;;;6.70;2.70;;;;;;;48.01;9.32;96221.91;10133249;28;98932;-64
2022/07/18 16:55:23;;;;;;;5.18;3.10;;;;;;;47.40;9.48;96211.44;10136246;28;96916;-65
2022/07/18 17:00:28;;;;;;;9.02;2.78;;;;;;;47.29;9.44;96205.88;10139879;28;96911;-66
2022/07/18 17:05:32;;;;;;;7.05;2.97;;;;;;;46.93;9.75;96211.19;10136725;28;96897;-64
2022/07/18 17:10:38;;;;;;;4.55;2.78;;;;;;;46.37;10.10;96206.88;10128870;28;98176;-64
2022/07/18 17:15:44;;;;;;;5.13;2.90;;;;;;;46.61;9.65;96219.25;10127137;28;96884;-65
2022/07/18 17:20:48;;;;;;;5.97;2.80;;;;;;;46.60;9.78;96212.16;10126821;28;96883;-65
2022/07/18 17:25:52;;;;;;;7.82;3.20;;;;;;;47.20;9.52;96217.28;10127044;28;97951;-65
2022/07/18 17:30:56;;;;;;;5.43;2.92;;;;;;;46.34;9.76;96213.16;10129328;28;97289;-66
2022/07/18 17:36:01;;;;;;;4.68;2.55;;;;;;;45.42;10.05;96215.31;10128237;28;96856;-65
2022/07/18 17:41:05;;;;;;;8.20;2.97;;;;;;;44.73;9.81;96210.81;10126219;28;96902;-65
2022/07/18 17:46:13;;;;;;;6.28;2.72;;;;;;;44.36;10.79;96208.69;10128616;28;97363;-65
2022/07/18 17:51:17;;;;;;;8.60;3.03;;;;;;;43.83;10.01;96212.06;10125119;28;97611;-65
2022/07/18 17:56:21;;;;;;;5.15;3.15;;;;;;;43.76;10.40;96208.38;10126862;28;98326;-66
2022/07/18 18:01:25;;;;;;;5.50;3.03;;;;;;;43.49;11.06;96211.78;10118600;28;98016;-65
2022/07/18 18:06:30;;;;;;;7.22;3.30;;;;;;;42.73;11.57;96214.06;10123244;28;96852;-66
2022/07/18 18:11:33;;;;;;;7.35;3.30;;;;;;;40.66;12.32;96210.75;10122875;28;97733;-66
2022/07/18 18:16:38;;;;;;;6.43;3.33;;;;;;;38.35;13.99;96207.13;10123005;28;97170;-64
2022/07/18 18:21:42;;;;;;;8.13;3.47;;;;;;;36.72;15.40;96222.94;10114238;28;97800;-66
2022/07/18 18:26:45;;;;;;;6.88;3.40;;;;;;;35.57;16.89;96225.38;10121328;28;97577;-66
2022/07/18 18:31:50;;;;;;;11.02;3.47;;;;;;;34.71;17.53;96226.19;10123502;28;101188;-65
2022/07/18 18:36:56;;;;;;;7.53;4.22;;;;;;;33.93;18.29;96223.28;10126812;28;99352;-66
2022/07/18 18:42:00;;;;;;;8.05;3.78;;;;;;;33.40;18.99;96227.94;10132130;28;97023;-65
2022/07/18 18:47:05;;;;;;;7.95;3.92;;;;;;;32.86;19.79;96235.44;10126344;28;98111;-66
2022/07/18 18:52:08;;;;;;;6.57;3.85;;;;;;;32.38;20.10;96240.06;10129316;28;96995;-66
2022/07/18 18:57:12;;;;;;;10.02;3.80;;;;;;;31.97;20.52;96236.69;10128513;28;97817;-66
2022/07/18 19:02:16;;;;;;;;;;;;;;;31.70;19.75;96231.75;10133633;28;97264;-64
2022/07/18 19:07:19;;;;;;;9.98;3.78;;;;;;;31.34;20.33;96239.31;10132068;28;97789;-64
2022/07/18 19:12:22;;;;;;;9.00;3.92;;;;;;;30.89;21.09;96238.50;10129167;28;97564;-66
2022/07/18 19:17:27;;;;;;;9.10;4.15;;;;;;;30.69;20.83;96245.56;10126474;28;97408;-66
2022/07/18 19:22:30;;;;;;;7.05;3.40;;;;;;;30.43;20.58;96244.88;10118535;28;97099;-63
2022/07/18 19:27:33;;;;;;;8.55;3.60;;;;;;;30.21;20.29;96245.19;10116442;28;98700;-66
2022/07/18 19:32:39;;;;;;;8.15;3.83;;;;;;;29.96;20.68;96246.81;10123068;28;97947;-65
2022/07/18 19:37:45;;;;;;;5.88;3.17;;;;;;;29.72;20.85;96244.69;10118050;28;98308;-66
2022/07/18 19:42:48;;;;;;;9.43;3.65;;;;;;;29.59;20.67;96255.97;10118604;28;97094;-65
2022/07/18 19:47:53;;;;;;;8.65;3.60;;;;;;;29.41;21.06;96259.97;10120918;28;98847;-65
2022/07/18 19:52:57;;;;;;;4.78;2.90;;;;;;;29.29;20.51;96262.13;10136031;28;96894;-66
2022/07/18 19:58:02;;;;;;;;;;;;;;;29.21;20.62;96260.78;10129587;28;97094;-64
2022/07/18 20:03:07;;;;;;;11.18;3.30;;;;;;;29.16;21.07;96253.50;10130672;28;98998;-65
2022/07/18 20:08:12;;;;;;;9.73;3.13;;;;;;;29.11;20.86;96266.94;10121951;28;100593;-66
2022/07/18 20:13:15;;;;;;;6.32;2.80;;;;;;;29.03;21.05;96258.56;10124638;28;97495;-64
2022/07/18 20:18:24;;;;;;;8.38;2.80;;;;;;;28.92;21.33;96258.53;10126070;28;97739;-66
2022/07/18 20:23:27;;;;;;;5.93;2.80;;;;;;;28.81;21.07;96262.22;10122476;28;97196;-69
2022/07/18 20:28:30;;;;;;;5.47;2.73;;;;;;;28.71;21.62;96275.66;10133158;28;97686;-67
2022/07/18 20:33:34;;;;;;;4.67;2.50;;;;;;;28.64;21.52;96281.25;10133188;28;97070;-67
2022/07/18 20:38:37;;;;;;;5.65;2.47;;;;;;;28.57;21.70;96281.50;10132317;28;97268;-64
2022/07/18 20:43:40;;;;;;;6.50;2.30;;;;;;;28.49;21.82;96276.59;10129920;28;97982;-66
2022/07/18 20:48:45;;;;;;;4.50;2.50;;;;;;;28.41;22.14;96285.16;10123069;28;98441;-66
2022/07/18 20:53:48;;;;;;;6.82;2.42;;;;;;;28.29;22.27;96276.50;10123995;28;98487;-65
2022/07/18 20:58:50;;;;;;;4.37;2.03;;;;;;;28.21;21.89;96281.25;10114323;28;97722;-68
2022/07/18 21:03:55;;;;;;;6.27;2.43;;;;;;;28.11;21.92;96275.03;10125252;28;99543;-65
2022/07/18 21:08:58;;;;;;;3.53;2.10;;;;;;;28.00;22.00;96279.50;10122506;28;97919;-64
2022/07/18 21:15:05;;;;;;;9.27;2.67;;;;;;;27.90;22.36;96280.25;10117569;28;98645;-66
2022/07/18 21:19:25;;;;;;;5.53;2.10;;;;;;;27.86;22.03;96279.94;10121548;28;98698;-67
2022/07/18 21:24:28;;;;;;;4.78;2.10;;;;;;;27.77;22.00;96281.50;10125451;28;96801;-66
2022/07/18 21:29:31;;;;;;;7.47;2.37;;;;;;;27.69;21.90;96284.63;10114360;28;97945;-69
2022/07/18 21:34:37;;;;;;;5.65;2.47;;;;;;;27.56;21.87;96280.47;10113035;28;98237;-68
2022/07/18 21:39:41;;;;;;;3.67;1.95;;;;;;;27.40;21.92;96281.41;10121399;28;97908;-69
2022/07/18 21:44:44;;;;;;;5.57;2.60;;;;;;;27.30;22.55;96282.13;10130320;28;97432;-68
2022/07/18 21:49:48;;;;;;;7.80;2.30;;;;;;;27.18;22.35;96284.13;10126385;28;97826;-68
2022/07/18 21:54:52;;;;;;;5.65;2.40;;;;;;;27.07;22.86;96283.19;10131726;28;97277;-68
2022/07/18 21:59:54;;;;;;;;;;;;;;;26.94;22.96;96279.06;10124718;28;97323;-68
2022/07/18 22:04:59;;;;;;;5.18;2.03;;;;;;;26.67;23.13;96278.97;10125783;28;98185;-69
2022/07/18 22:10:02;;;;;;;4.47;2.58;;;;;;;26.41;23.81;96288.53;10130453;28;97402;-68
2022/07/18 22:15:05;;;;;;;4.70;2.77;;;;;;;26.15;24.67;96283.63;10135153;28;98058;-68
2022/07/18 22:20:11;;;;;;;;;;;;;;;25.89;24.56;96285.06;10131621;28;97207;-69
2022/07/18 22:25:13;;;;;;;4.78;2.63;;;;;;;25.68;25.57;96291.16;10132260;28;98097;-68
2022/07/18 22:30:16;;;;;;;3.88;2.45;;;;;;;25.53;25.97;96286.31;10132910;28;97221;-68
2022/07/18 22:35:21;;;;;;;5.65;2.60;;;;;;;25.29;26.82;96286.47;10132236;28;96951;-69
2022/07/18 22:40:24;;;;;;;5.35;2.30;;;;;;;25.08;27.66;96295.97;10139842;28;97198;-68
2022/07/18 22:45:26;;;;;;;5.57;2.22;;;;;;;24.77;28.26;96290.00;10144928;28;97018;-69
2022/07/18 22:50:31;;;;;;;3.77;2.53;;;;;;;24.42;29.28;96288.22;10146020;28;96978;-68
2022/07/18 22:55:34;;;;;;;4.05;2.40;;;;;;;24.00;28.55;96299.00;10153739;28;97154;-66
2022/07/18 23:00:37;;;;;;;6.10;2.53;;;;;;;23.86;28.68;96300.25;10138792;28;98348;-67
2022/07/18 23:05:42;;;;;;;4.77;2.50;;;;;;;23.82;28.63;96305.22;10141243;28;96971;-66
2022/07/18 23:10:46;;;;;;;3.30;2.10;;;;;;;23.58;29.06;96299.03;10125666;28;96801;-67
2022/07/18 23:15:49;;;;;;;4.47;2.15;;;;;;;23.52;29.51;96291.97;10131470;28;96823;-66
2022/07/18 23:20:54;;;;;;;6.17;3.20;;;;;;;23.45;30.21;96294.72;10128638;28;97069;-66
2022/07/18 23:25:57;;;;;;;6.00;2.42;;;;;;;23.30;30.58;96303.13;10135356;28;97234;-66
2022/07/18 23:31:00;;;;;;;7.80;2.67;;;;;;;23.04;32.12;96298.94;10139472;28;98669;-65
2022/07/18 23:36:05;;;;;;;5.47;2.70;;;;;;;22.82;31.86;96290.59;10142106;28;98548;-65
2022/07/18 23:41:08;;;;;;;4.10;2.00;;;;;;;22.70;31.49;96297.72;10127019;28;96904;-66
2022/07/18 23:46:11;;;;;;;4.28;2.20;;;;;;;22.54;31.25;96289.28;10140475;28;99092;-66
2022/07/18 23:51:16;;;;;;;3.42;2.00;;;;;;;22.45;30.98;96293.25;10133154;28;98458;-66
2022/07/18 23:56:19;;;;;;;;;;;;;;;22.31;31.07;96300.56;10140957;28;98743;-66
